Time;durP1;ratioP1;P1;durP2;ratioP2;P2;SDS_P1;SDS_P2;PMS_P1;PMS_P2;Temp;Humidity;BMP_temperature;BMP_pressure;BME280_temperature;BME280_humidity;BME280_pressure;Samples;Min_cycle;Max_cycle;Signal;HPM_P1;HPM_P2
2021/01/25 00:02:20;;;;;;;1.5;1.2;;;;;;;;;;;;;
2021/01/25 00:04:45;;;;;;;1.1;1;;;;;;;;;;;;;
2021/01/25 00:07:11;;;;;;;0.5;0.5;;;;;;;;;;;;;
2021/01/25 00:09:36;;;;;;;2;1.3;;;;;;;;;;;;;
2021/01/25 00:12:01;;;;;;;1.4;0.7;;;;;;;;;;;;;
2021/01/25 00:14:27;;;;;;;1;0.5;;;;;;;;;;;;;
2021/01/25 00:16:54;;;;;;;0.7;0.7;;;;;;;;;;;;;
2021/01/25 00:19:19;;;;;;;0.5;0.5;;;;;;;;;;;;;
2021/01/25 00:21:44;;;;;;;1;0.8;;;;;;;;;;;;;
2021/01/25 00:24:10;;;;;;;3.1;1.4;;;;;;;;;;;;;
2021/01/25 00:26:35;;;;;;;1.3;1;;;;;;;;;;;;;
2021/01/25 00:29:00;;;;;;;1.6;0.9;;;;;;;;;;;;;
2021/01/25 00:31:26;;;;;;;0.7;0.7;;;;;;;;;;;;;
2021/01/25 00:33:51;;;;;;;0.7;0.7;;;;;;;;;;;;;
2021/01/25 00:36:16;;;;;;;0.5;0.5;;;;;;;;;;;;;
2021/01/25 00:38:42;;;;;;;1.9;0.5;;;;;;;;;;;;;
2021/01/25 00:41:08;;;;;;;1.8;0.6;;;;;;;;;;;;;
2021/01/25 00:43:33;;;;;;;2;1;;;;;;;;;;;;;
2021/01/25 00:45:59;;;;;;;2.5;1.4;;;;;;;;;;;;;
2021/01/25 00:48:25;;;;;;;1.3;1.2;;;;;;;;;;;;;
2021/01/25 00:50:51;;;;;;;3;0.6;;;;;;;;;;;;;
2021/01/25 00:53:16;;;;;;;0.8;0.8;;;;;;;;;;;;;
2021/01/25 00:55:42;;;;;;;2.6;1.9;;;;;;;;;;;;;
2021/01/25 00:58:07;;;;;;;0.7;0.7;;;;;;;;;;;;;
2021/01/25 01:00:34;;;;;;;2.8;1.1;;;;;;;;;;;;;
2021/01/25 01:02:59;;;;;;;0.6;0.6;;;;;;;;;;;;;
2021/01/25 01:05:26;;;;;;;1.2;1;;;;;;;;;;;;;
2021/01/25 01:07:51;;;;;;;0.9;0.8;;;;;;;;;;;;;
2021/01/25 01:10:16;;;;;;;3.3;1.2;;;;;;;;;;;;;
2021/01/25 01:12:41;;;;;;;0.6;0.6;;;;;;;;;;;;;
2021/01/25 01:15:07;;;;;;;1.2;0.6;;;;;;;;;;;;;
2021/01/25 01:17:33;;;;;;;1;0.6;;;;;;;;;;;;;
2021/01/25 01:19:58;;;;;;;1.2;0.8;;;;;;;;;;;;;
2021/01/25 01:22:23;;;;;;;0.8;0.8;;;;;;;;;;;;;
2021/01/25 01:24:49;;;;;;;1.8;1;;;;;;;;;;;;;
2021/01/25 01:27:14;;;;;;;4.2;1.1;;;;;;;;;;;;;
2021/01/25 01:29:41;;;;;;;0.9;0.8;;;;;;;;;;;;;
2021/01/25 01:32:06;;;;;;;1.2;1;;;;;;;;;;;;;
2021/01/25 01:34:32;;;;;;;0.3;0.3;;;;;;;;;;;;;
2021/01/25 01:36:57;;;;;;;0.5;0.5;;;;;;;;;;;;;
2021/01/25 01:39:22;;;;;;;0.5;0.5;;;;;;;;;;;;;
2021/01/25 01:41:48;;;;;;;1.3;1.1;;;;;;;;;;;;;
2021/01/25 01:44:13;;;;;;;0.4;0.4;;;;;;;;;;;;;
2021/01/25 01:46:38;;;;;;;0.4;0.4;;;;;;;;;;;;;
2021/01/25 01:49:03;;;;;;;0.4;0.4;;;;;;;;;;;;;
2021/01/25 01:51:28;;;;;;;1.3;0.9;;;;;;;;;;;;;
2021/01/25 01:53:53;;;;;;;0.5;0.5;;;;;;;;;;;;;
2021/01/25 01:56:19;;;;;;;0.7;0.7;;;;;;;;;;;;;
2021/01/25 01:58:45;;;;;;;0.6;0.6;;;;;;;;;;;;;
2021/01/25 02:01:10;;;;;;;3.3;0.7;;;;;;;;;;;;;
2021/01/25 02:03:35;;;;;;;2.4;1.3;;;;;;;;;;;;;
2021/01/25 02:06:02;;;;;;;2;1.1;;;;;;;;;;;;;
2021/01/25 02:08:27;;;;;;;4.9;1;;;;;;;;;;;;;
2021/01/25 02:10:53;;;;;;;0.7;0.6;;;;;;;;;;;;;
2021/01/25 02:13:18;;;;;;;1.2;1;;;;;;;;;;;;;
2021/01/25 02:15:44;;;;;;;0.5;0.5;;;;;;;;;;;;;
2021/01/25 02:18:09;;;;;;;0.5;0.5;;;;;;;;;;;;;
2021/01/25 02:20:35;;;;;;;0.4;0.4;;;;;;;;;;;;;
2021/01/25 02:23:00;;;;;;;0.6;0.6;;;;;;;;;;;;;
2021/01/25 02:25:26;;;;;;;0.9;0.8;;;;;;;;;;;;;
2021/01/25 02:27:52;;;;;;;7.7;0.9;;;;;;;;;;;;;
2021/01/25 02:30:17;;;;;;;0.7;0.7;;;;;;;;;;;;;
2021/01/25 02:32:43;;;;;;;1.2;0.9;;;;;;;;;;;;;
2021/01/25 02:35:08;;;;;;;0.5;0.5;;;;;;;;;;;;;
2021/01/25 02:37:35;;;;;;;0.6;0.6;;;;;;;;;;;;;
2021/01/25 02:40:01;;;;;;;1.2;1.1;;;;;;;;;;;;;
2021/01/25 02:42:26;;;;;;;0.5;0.5;;;;;;;;;;;;;
2021/01/25 02:44:51;;;;;;;0.8;0.6;;;;;;;;;;;;;
2021/01/25 02:47:17;;;;;;;0.5;0.5;;;;;;;;;;;;;
2021/01/25 02:49:42;;;;;;;0.6;0.6;;;;;;;;;;;;;
2021/01/25 02:52:08;;;;;;;0.6;0.6;;;;;;;;;;;;;
2021/01/25 02:54:33;;;;;;;0.5;0.5;;;;;;;;;;;;;
2021/01/25 02:56:59;;;;;;;1;0.4;;;;;;;;;;;;;
2021/01/25 02:59:24;;;;;;;0.5;0.5;;;;;;;;;;;;;
2021/01/25 03:01:50;;;;;;;1.6;0.8;;;;;;;;;;;;;
2021/01/25 03:04:15;;;;;;;1.6;0.6;;;;;;;;;;;;;
2021/01/25 03:06:43;;;;;;;0.4;0.4;;;;;;;;;;;;;
2021/01/25 03:09:08;;;;;;;0.4;0.4;;;;;;;;;;;;;
2021/01/25 03:11:33;;;;;;;0.3;0.3;;;;;;;;;;;;;
2021/01/25 03:13:58;;;;;;;0.6;0.6;;;;;;;;;;;;;
2021/01/25 03:16:23;;;;;;;0.3;0.3;;;;;;;;;;;;;
2021/01/25 03:18:48;;;;;;;0.2;0.2;;;;;;;;;;;;;
2021/01/25 03:21:15;;;;;;;0.4;0.4;;;;;;;;;;;;;
2021/01/25 03:23:40;;;;;;;1.1;0.3;;;;;;;;;;;;;
2021/01/25 03:26:06;;;;;;;2.8;1.3;;;;;;;;;;;;;
2021/01/25 03:28:31;;;;;;;1.1;0.7;;;;;;;;;;;;;
2021/01/25 03:30:57;;;;;;;0.3;0.3;;;;;;;;;;;;;
2021/01/25 03:33:22;;;;;;;5.2;0.7;;;;;;;;;;;;;
2021/01/25 03:35:49;;;;;;;2.7;1;;;;;;;;;;;;;
2021/01/25 03:38:14;;;;;;;0.3;0.3;;;;;;;;;;;;;
2021/01/25 03:40:40;;;;;;;0.3;0.3;;;;;;;;;;;;;
2021/01/25 03:43:05;;;;;;;0.9;0.5;;;;;;;;;;;;;
2021/01/25 03:45:31;;;;;;;1;1;;;;;;;;;;;;;
2021/01/25 03:47:56;;;;;;;0.6;0.6;;;;;;;;;;;;;
2021/01/25 03:50:22;;;;;;;1.4;0.7;;;;;;;;;;;;;
2021/01/25 03:52:47;;;;;;;0.8;0.7;;;;;;;;;;;;;
2021/01/25 03:55:13;;;;;;;1.1;0.6;;;;;;;;;;;;;
2021/01/25 03:57:39;;;;;;;0.5;0.5;;;;;;;;;;;;;
2021/01/25 04:00:04;;;;;;;0.5;0.5;;;;;;;;;;;;;
2021/01/25 04:02:31;;;;;;;1.7;1.2;;;;;;;-4.86;62.88379;920.7916;;;;
2021/01/25 04:04:56;;;;;;;0.5;0.5;;;;;;;-4.88;61.90137;920.8886;;;;
2021/01/25 04:07:21;;;;;;;6.7;2.2;;;;;;;-4.8;61.30762;920.8167;;;;
2021/01/25 04:09:46;;;;;;;1.4;1;;;;;;;-4.87;62.65039;920.8229;;;;
2021/01/25 04:12:14;;;;;;;2.3;1.1;;;;;;;-4.87;63.88281;920.8741;;;;
2021/01/25 04:14:39;;;;;;;0.5;0.5;;;;;;;-4.79;64.47949;920.7766;;;;
2021/01/25 04:17:06;;;;;;;5;2;;;;;;;-4.77;62.87598;920.8558;;;;
2021/01/25 04:19:30;;;;;;;7.7;2.1;;;;;;;-4.53;63.66211;920.8214;;;;
2021/01/25 04:21:56;;;;;;;4.4;2.1;;;;;;;-4.55;61.0791;920.7809;;;;
2021/01/25 04:24:22;;;;;;;3.9;2.5;;;;;;;-4.46;62.00684;920.6461;;;;
2021/01/25 04:26:47;;;;;;;11.5;5.4;;;;;;;-4.35;62.46387;920.7969;;;;
2021/01/25 04:29:12;;;;;;;6.5;3.2;;;;;;;-4.27;62.8291;920.7662;;;;
2021/01/25 04:31:39;;;;;;;6;2;;;;;;;-4.12;59.55566;920.6447;;;;
2021/01/25 04:34:05;;;;;;;1.6;1.1;;;;;;;-3.93;58.43359;920.7475;;;;
2021/01/25 04:36:31;;;;;;;12.7;3.4;;;;;;;-3.8;57.60254;920.635;;;;
2021/01/25 04:38:56;;;;;;;6.7;2.7;;;;;;;-3.81;60.62598;920.7883;;;;
2021/01/25 04:41:23;;;;;;;3.8;1.6;;;;;;;-3.86;62.72656;920.7142;;;;
2021/01/25 04:43:48;;;;;;;4.1;1.3;;;;;;;-3.82;62.16992;920.7438;;;;
2021/01/25 04:46:13;;;;;;;0.8;0.8;;;;;;;-3.76;62.65234;920.6854;;;;
2021/01/25 04:48:39;;;;;;;2.1;1;;;;;;;-3.8;62.19336;920.7464;;;;
2021/01/25 04:51:05;;;;;;;0.7;0.6;;;;;;;-3.77;60.71777;920.8022;;;;
2021/01/25 04:53:30;;;;;;;2.2;0.6;;;;;;;-3.69;59.6709;920.8097;;;;
2021/01/25 04:55:55;;;;;;;1.3;1;;;;;;;-3.63;59.6582;920.8116;;;;
2021/01/25 04:58:20;;;;;;;1.4;1;;;;;;;-3.64;62.22949;920.813;;;;
2021/01/25 05:00:46;;;;;;;2.9;1.3;;;;;;;-3.59;62.63281;920.7991;;;;
2021/01/25 05:03:11;;;;;;;1.3;1.2;;;;;;;-3.54;61.45898;920.7813;;;;
2021/01/25 05:05:37;;;;;;;0.9;0.9;;;;;;;-3.37;61.29688;920.7926;;;;
2021/01/25 05:08:03;;;;;;;51.1;22;;;;;;;-3.24;60.05469;920.7346;;;;
2021/01/25 05:10:29;;;;;;;9.1;5.3;;;;;;;-3.2;59.11035;920.7921;;;;
2021/01/25 05:12:54;;;;;;;1.2;1.1;;;;;;;-3.14;59.42773;920.7511;;;;
2021/01/25 05:15:21;;;;;;;10.5;1.1;;;;;;;-3.08;58.87305;920.795;;;;
2021/01/25 05:17:46;;;;;;;1;0.6;;;;;;;-2.85;58.86035;920.7095;;;;
2021/01/25 05:20:13;;;;;;;1.1;0.6;;;;;;;-2.66;56.69629;920.6906;;;;
2021/01/25 05:22:43;;;;;;;2;0.7;;;;;;;-2.51;58.50977;920.6781;;;;
2021/01/25 05:25:09;;;;;;;1.3;0.7;;;;;;;-2.42;57.63672;920.6284;;;;
2021/01/25 05:27:34;;;;;;;0.7;0.7;;;;;;;-2.31;56.45605;920.6125;;;;
2021/01/25 05:29:59;;;;;;;0.5;0.4;;;;;;;-2.32;55.7666;920.6206;;;;
2021/01/25 05:32:27;;;;;;;1.9;0.6;;;;;;;-2.29;52.54785;920.528;;;;
2021/01/25 05:34:51;;;;;;;0.5;0.5;;;;;;;-2.28;53.47949;920.5829;;;;
2021/01/25 05:37:21;;;;;;;10.3;1.3;;;;;;;-2.33;50.8916;920.5627;;;;
2021/01/25 05:39:46;;;;;;;1.9;0.8;;;;;;;-2.27;54.56641;920.6277;;;;
2021/01/25 05:42:15;;;;;;;1.3;0.7;;;;;;;-2.39;56.45508;920.5111;;;;
2021/01/25 05:44:41;;;;;;;2.6;0.8;;;;;;;-2.33;56.74121;920.6074;;;;
2021/01/25 05:47:06;;;;;;;2.2;1.5;;;;;;;-2.36;56.60352;920.5868;;;;
2021/01/25 05:49:31;;;;;;;9.4;4;;;;;;;-2.55;55.16113;920.6926;;;;
2021/01/25 05:52:00;;;;;;;26.7;18;;;;;;;-2.74;56.41992;920.689;;;;
2021/01/25 05:54:25;;;;;;;1;0.8;;;;;;;-2.85;58.06445;920.7026;;;;
2021/01/25 05:56:52;;;;;;;1.3;0.9;;;;;;;-2.99;58.88574;920.7491;;;;
2021/01/25 05:59:18;;;;;;;6.5;5;;;;;;;-3.09;60.54102;920.7683;;;;
2021/01/25 06:01:44;;;;;;;4.7;2.5;;;;;;;-3.24;61.52637;920.8561;;;;
2021/01/25 06:04:09;;;;;;;0.7;0.7;;;;;;;-3.35;60.625;920.8499;;;;
2021/01/25 06:06:35;;;;;;;1.2;1.1;;;;;;;-3.45;61.66113;920.8436;;;;
2021/01/25 06:09:01;;;;;;;6.7;1.9;;;;;;;-3.43;61.27734;920.7796;;;;
2021/01/25 06:11:26;;;;;;;2.1;1.5;;;;;;;-3.39;62.50977;920.7189;;;;
2021/01/25 06:13:51;;;;;;;1.2;1.1;;;;;;;-3.44;62.08105;920.7838;;;;
2021/01/25 06:16:16;;;;;;;0.6;0.6;;;;;;;-3.54;62.55273;920.8631;;;;
2021/01/25 06:18:41;;;;;;;1;0.6;;;;;;;-3.63;62.16504;920.8582;;;;
2021/01/25 06:21:07;;;;;;;1.5;0.8;;;;;;;-3.53;61.04199;920.8563;;;;
2021/01/25 06:23:33;;;;;;;1.2;1;;;;;;;-3.58;61.53125;920.9116;;;;
2021/01/25 06:25:58;;;;;;;2.5;1.3;;;;;;;-3.44;61.51953;920.8719;;;;
2021/01/25 06:28:25;;;;;;;3.3;1.7;;;;;;;-3.33;61.23633;920.8437;;;;
2021/01/25 06:30:50;;;;;;;4.8;1.1;;;;;;;-3.26;61.49023;920.8367;;;;
2021/01/25 06:33:16;;;;;;;1.5;1;;;;;;;-3.5;61.33301;920.8933;;;;
2021/01/25 06:35:40;;;;;;;1.5;1.2;;;;;;;-3.65;61.74121;920.9464;;;;
2021/01/25 06:38:05;;;;;;;3.2;2.1;;;;;;;-3.55;61.68945;921.0128;;;;
2021/01/25 06:40:31;;;;;;;3.2;1.4;;;;;;;-3.46;61.72559;921.0226;;;;
2021/01/25 06:42:56;;;;;;;1.7;1.3;;;;;;;-3.4;60.51855;920.9799;;;;
2021/01/25 06:45:21;;;;;;;2.5;1.5;;;;;;;-3.27;60.59277;920.9803;;;;
2021/01/25 06:47:46;;;;;;;1.7;1.4;;;;;;;-3.22;61.04297;921.0325;;;;
2021/01/25 06:50:11;;;;;;;6.1;1.9;;;;;;;-3.33;62.88379;921.0297;;;;
2021/01/25 06:52:36;;;;;;;2.4;1.7;;;;;;;-3.28;62.87891;921.1036;;;;
2021/01/25 06:55:03;;;;;;;1.2;1.1;;;;;;;-3.23;63.1416;921.1139;;;;
2021/01/25 06:57:28;;;;;;;2.2;1.6;;;;;;;-3.15;62.7998;921.073;;;;
2021/01/25 06:59:54;;;;;;;1.5;0.9;;;;;;;-3.29;62.76563;921.1273;;;;
2021/01/25 07:02:20;;;;;;;0.9;0.9;;;;;;;-3.31;63.57227;921.176;;;;
2021/01/25 07:04:45;;;;;;;2;1.2;;;;;;;-3.31;60.62012;921.1415;;;;
2021/01/25 07:07:10;;;;;;;1.1;1;;;;;;;-3.17;61.46973;921.1315;;;;
2021/01/25 07:09:36;;;;;;;1.1;1;;;;;;;-2.99;58.74316;921.2303;;;;
2021/01/25 07:12:01;;;;;;;1.6;1.5;;;;;;;-2.81;58.96582;921.2374;;;;
2021/01/25 07:14:26;;;;;;;2.3;1.4;;;;;;;-2.64;59.06738;921.2419;;;;
2021/01/25 07:16:53;;;;;;;1.5;0.9;;;;;;;-2.52;59.17383;921.1813;;;;
2021/01/25 07:19:18;;;;;;;2.7;1.8;;;;;;;-2.56;58.68066;921.2158;;;;
2021/01/25 07:21:43;;;;;;;6.1;3.4;;;;;;;-2.62;60.73242;921.3042;;;;
2021/01/25 07:24:09;;;;;;;10.3;3.8;;;;;;;-2.76;61.02148;921.3055;;;;
2021/01/25 07:26:34;;;;;;;8;3.9;;;;;;;-2.56;61.75879;921.3265;;;;
2021/01/25 07:28:59;;;;;;;9.5;3.5;;;;;;;-2.54;61.85156;921.3233;;;;
2021/01/25 07:31:27;;;;;;;7.8;3.7;;;;;;;-2.46;61.02051;921.3465;;;;
2021/01/25 07:33:52;;;;;;;17;9.5;;;;;;;-2.64;60.64063;921.3292;;;;
2021/01/25 07:36:22;;;;;;;5.9;3.5;;;;;;;-2.65;60.85938;921.4247;;;;
2021/01/25 07:38:44;;;;;;;10.1;3.6;;;;;;;-2.66;60.48242;921.4423;;;;
2021/01/25 07:41:09;;;;;;;8.4;4.3;;;;;;;-2.58;60.93652;921.4365;;;;
2021/01/25 07:43:34;;;;;;;5;3;;;;;;;-2.54;60.55566;921.5078;;;;
2021/01/25 07:46:01;;;;;;;6.1;2.8;;;;;;;-2.71;60.85059;921.5045;;;;
2021/01/25 07:48:26;;;;;;;3.5;3;;;;;;;-2.81;61.47754;921.4645;;;;
2021/01/25 07:50:52;;;;;;;4.5;2.6;;;;;;;-2.77;60.76563;921.5192;;;;
2021/01/25 07:53:17;;;;;;;2.8;2.2;;;;;;;-2.72;59.09082;921.4094;;;;
2021/01/25 07:55:43;;;;;;;4.3;2.3;;;;;;;-2.67;59.48438;921.5464;;;;
2021/01/25 07:58:08;;;;;;;2.3;1.8;;;;;;;-2.57;58.29199;921.5156;;;;
2021/01/25 08:00:37;;;;;;;3.6;2.4;;;;;;;-2.41;56.59766;921.4042;;;;
2021/01/25 08:03:00;;;;;;;4.2;1.9;;;;;;;-2.32;57.21777;921.5115;;;;
2021/01/25 08:05:27;;;;;;;3.2;1.9;;;;;;;-2.32;57.48535;921.503;;;;
2021/01/25 08:07:52;;;;;;;8.6;2.6;;;;;;;-2.24;58.31543;921.5059;;;;
2021/01/25 08:10:23;;;;;;;5.4;3.3;;;;;;;-2.13;56.97949;921.5531;;;;
2021/01/25 08:12:52;;;;;;;7;2.8;;;;;;;-2.09;56.49609;921.5559;;;;
2021/01/25 08:15:15;;;;;;;3;2.1;;;;;;;-1.99;55.50098;921.5917;;;;
2021/01/25 08:17:42;;;;;;;5.5;2.3;;;;;;;-1.73;55.13574;921.5469;;;;
2021/01/25 08:20:09;;;;;;;3.2;2;;;;;;;-1.56;54.73633;921.5668;;;;
2021/01/25 08:22:33;;;;;;;2.4;1.4;;;;;;;-1.49;54.08984;921.5131;;;;
2021/01/25 08:24:58;;;;;;;2.4;1.5;;;;;;;-1.23;54.30176;921.5342;;;;
2021/01/25 08:27:24;;;;;;;2;1.6;;;;;;;-0.97;52.96875;921.5524;;;;
2021/01/25 08:29:49;;;;;;;2.4;1.6;;;;;;;-0.82;51.39746;921.599;;;;
2021/01/25 08:32:14;;;;;;;1.1;0.8;;;;;;;-0.66;51.52734;921.5013;;;;
2021/01/25 08:34:39;;;;;;;1.5;1.2;;;;;;;-0.6;49.59961;921.5907;;;;
2021/01/25 08:37:07;;;;;;;1.4;1.2;;;;;;;-0.48;49.38086;921.6114;;;;
2021/01/25 08:39:29;;;;;;;9.5;1.2;;;;;;;-0.24;49.25293;921.5334;;;;
2021/01/25 08:41:55;;;;;;;1;0.9;;;;;;;-0.04;48.62988;921.5653;;;;
2021/01/25 08:44:19;;;;;;;2.3;1.1;;;;;;;-0.12;48.83301;921.6513;;;;
2021/01/25 08:46:44;;;;;;;1.1;0.7;;;;;;;-0.19;47.94434;921.6379;;;;
2021/01/25 08:49:12;;;;;;;3.2;1.4;;;;;;;-0.13;47.09375;921.6909;;;;
2021/01/25 08:51:37;;;;;;;2.3;1;;;;;;;-0.07;48.6377;921.7101;;;;
2021/01/25 08:54:02;;;;;;;1.6;1.3;;;;;;;0.08;48.94434;921.7011;;;;
2021/01/25 08:56:27;;;;;;;3.9;1.4;;;;;;;0.18;49.55762;921.65;;;;
2021/01/25 08:58:54;;;;;;;1;0.9;;;;;;;0.29;48.81348;921.6919;;;;
2021/01/25 09:01:19;;;;;;;0.9;0.8;;;;;;;0.28;48.33203;921.6994;;;;
2021/01/25 09:03:47;;;;;;;1;0.9;;;;;;;0.49;47.36328;921.7303;;;;
2021/01/25 09:06:12;;;;;;;0.4;0.4;;;;;;;0.45;45.94336;921.7579;;;;
2021/01/25 09:08:37;;;;;;;0.5;0.5;;;;;;;0.62;46.46387;921.8005;;;;
2021/01/25 09:11:02;;;;;;;0.4;0.4;;;;;;;0.84;47.40332;921.838;;;;
2021/01/25 09:13:29;;;;;;;1;0.5;;;;;;;0.66;44.86133;921.8577;;;;
2021/01/25 09:15:54;;;;;;;0.9;0.6;;;;;;;0.51;46.5293;921.842;;;;
2021/01/25 09:18:19;;;;;;;0.4;0.4;;;;;;;0.43;46.47656;921.8733;;;;
2021/01/25 09:20:44;;;;;;;0.5;0.5;;;;;;;0.11;46.50781;921.9867;;;;
2021/01/25 09:23:10;;;;;;;0.4;0.4;;;;;;;-0.02;46.76172;921.9352;;;;
2021/01/25 09:25:36;;;;;;;0.3;0.3;;;;;;;0.12;47.50098;921.9642;;;;
2021/01/25 09:28:02;;;;;;;0.3;0.3;;;;;;;0.36;46.50293;921.9272;;;;
2021/01/25 09:30:28;;;;;;;0.2;0.2;;;;;;;0.53;46.98926;921.9661;;;;
2021/01/25 09:32:59;;;;;;;1.4;0.7;;;;;;;0.57;46.06836;921.9709;;;;
2021/01/25 09:35:26;;;;;;;0.9;0.8;;;;;;;0.64;46.65527;922.003;;;;
2021/01/25 09:37:49;;;;;;;1.8;1;;;;;;;0.74;47.1582;921.9721;;;;
2021/01/25 09:40:15;;;;;;;2.8;1.3;;;;;;;0.73;48.3291;922.0902;;;;
2021/01/25 09:42:40;;;;;;;1.6;1.2;;;;;;;0.83;48.2168;922.0931;;;;
2021/01/25 09:45:06;;;;;;;3.2;1.5;;;;;;;0.81;48.31445;922.1516;;;;
2021/01/25 09:47:31;;;;;;;1.8;1.5;;;;;;;0.73;48.09375;922.1669;;;;
2021/01/25 09:49:57;;;;;;;5.7;2.1;;;;;;;0.7;48.88281;922.1727;;;;
2021/01/25 09:52:21;;;;;;;1.7;1.5;;;;;;;0.78;49.1377;922.113;;;;
2021/01/25 09:54:46;;;;;;;2.7;1.2;;;;;;;0.72;47.99316;922.1683;;;;
2021/01/25 09:57:12;;;;;;;4.6;1.4;;;;;;;0.71;48.61523;922.2346;;;;
2021/01/25 09:59:37;;;;;;;3.6;1.7;;;;;;;0.77;49.41602;922.1387;;;;
2021/01/25 10:02:03;;;;;;;1.8;1.6;;;;;;;0.73;49.59961;922.2758;;;;
2021/01/25 10:04:28;;;;;;;4.5;1.9;;;;;;;0.92;50.7832;922.3055;;;;
2021/01/25 10:06:55;;;;;;;4;1.9;;;;;;;1.03;52.1709;922.2875;;;;
2021/01/25 10:09:20;;;;;;;2.9;1.7;;;;;;;1.2;51.14063;922.2922;;;;
2021/01/25 10:11:46;;;;;;;3.5;2.1;;;;;;;1.2;52.57227;922.3044;;;;
2021/01/25 10:14:11;;;;;;;3.2;1.6;;;;;;;1.3;53.87988;922.2308;;;;
2021/01/25 10:16:37;;;;;;;3.6;1.7;;;;;;;1.45;54.79297;922.1608;;;;
2021/01/25 10:19:03;;;;;;;2.7;1.7;;;;;;;1.45;54.5918;922.3042;;;;
2021/01/25 10:21:29;;;;;;;3.5;1.7;;;;;;;1.59;54.80078;922.2712;;;;
2021/01/25 10:23:54;;;;;;;3.2;1.7;;;;;;;1.78;55.76465;922.2511;;;;
2021/01/25 10:26:20;;;;;;;3.3;2.2;;;;;;;2.05;55.13965;922.2653;;;;
2021/01/25 10:28:44;;;;;;;2.9;2;;;;;;;2.26;53.97949;922.3589;;;;
2021/01/25 10:31:11;;;;;;;3.6;2;;;;;;;2.42;54.77246;922.3284;;;;
2021/01/25 10:33:36;;;;;;;2.8;1.5;;;;;;;2.6;53.25;922.3909;;;;
2021/01/25 10:36:02;;;;;;;3.1;2.1;;;;;;;2.71;53.23047;922.4269;;;;
2021/01/25 10:38:27;;;;;;;3.1;1.7;;;;;;;2.82;51.78516;922.437;;;;
2021/01/25 10:40:54;;;;;;;25.5;10.1;;;;;;;2.94;51.40723;922.382;;;;
2021/01/25 10:43:19;;;;;;;11.5;5.5;;;;;;;3;51.60547;922.3853;;;;
2021/01/25 10:45:46;;;;;;;7.2;3;;;;;;;3.23;51.67871;922.4172;;;;
2021/01/25 10:48:11;;;;;;;6.1;3.1;;;;;;;3.45;52.11035;922.4465;;;;
2021/01/25 10:50:37;;;;;;;7;2.2;;;;;;;3.34;51.31055;922.4326;;;;
2021/01/25 10:53:02;;;;;;;1.2;1;;;;;;;3.49;47.2627;922.3281;;;;
2021/01/25 10:55:28;;;;;;;3.4;1.3;;;;;;;3.84;48.60547;922.3752;;;;
2021/01/25 10:57:53;;;;;;;3.8;1.2;;;;;;;3.93;48.33398;922.3491;;;;
2021/01/25 11:00:18;;;;;;;1.8;1.4;;;;;;;3.93;47.41309;922.3878;;;;
2021/01/25 11:02:44;;;;;;;2.5;1.4;;;;;;;3.97;46.97852;922.2786;;;;
2021/01/25 11:05:09;;;;;;;0.9;0.8;;;;;;;3.62;48.25488;922.3903;;;;
2021/01/25 11:07:33;;;;;;;1.7;1.1;;;;;;;3.04;48.02148;922.3708;;;;
2021/01/25 11:09:58;;;;;;;1.2;0.9;;;;;;;3.17;46.39648;922.4037;;;;
2021/01/25 11:12:24;;;;;;;0.5;0.5;;;;;;;3.34;47.23535;922.3477;;;;
2021/01/25 11:14:49;;;;;;;1;0.9;;;;;;;3.36;47.49414;922.3061;;;;
2021/01/25 11:17:16;;;;;;;2;0.9;;;;;;;3.64;47.89648;922.418;;;;
2021/01/25 11:19:41;;;;;;;1.2;0.9;;;;;;;3.78;48.10352;922.3736;;;;
2021/01/25 11:22:07;;;;;;;4.2;1.1;;;;;;;3.83;46.92871;922.3293;;;;
2021/01/25 11:24:32;;;;;;;2.4;1.3;;;;;;;3.83;47.88379;922.3783;;;;
2021/01/25 11:26:59;;;;;;;3.3;1.5;;;;;;;3.84;48.94141;922.3052;;;;
2021/01/25 11:29:25;;;;;;;1.4;1;;;;;;;3.72;49.22168;922.2952;;;;
2021/01/25 11:31:48;;;;;;;1.3;0.8;;;;;;;3.59;49.18359;922.3951;;;;
2021/01/25 11:34:15;;;;;;;1.7;0.9;;;;;;;3.84;49.77344;922.4019;;;;
2021/01/25 11:36:41;;;;;;;1.1;0.8;;;;;;;3.75;49.80859;922.3608;;;;
2021/01/25 11:39:06;;;;;;;2.3;0.9;;;;;;;3.81;49.37695;922.4553;;;;
2021/01/25 11:41:31;;;;;;;1.6;1;;;;;;;3.77;49.38281;922.3325;;;;
2021/01/25 11:43:57;;;;;;;0.8;0.7;;;;;;;3.65;50.93164;922.3937;;;;
2021/01/25 11:46:22;;;;;;;0.7;0.6;;;;;;;3.66;51.51758;922.4891;;;;
2021/01/25 11:48:48;;;;;;;0.6;0.5;;;;;;;3.72;50.98438;922.5471;;;;
2021/01/25 11:51:13;;;;;;;0.5;0.4;;;;;;;3.84;51.30371;922.5358;;;;
2021/01/25 11:53:40;;;;;;;0.7;0.7;;;;;;;3.89;50.94922;922.4528;;;;
2021/01/25 11:56:05;;;;;;;0.5;0.3;;;;;;;3.86;52.21582;922.5761;;;;
2021/01/25 11:58:31;;;;;;;0.7;0.4;;;;;;;3.54;54.1416;922.6528;;;;
2021/01/25 12:00:56;;;;;;;0.8;0.4;;;;;;;3.61;54.73535;922.601;;;;
2021/01/25 12:03:21;;;;;;;0.4;0.4;;;;;;;3.48;54.42676;922.5687;;;;
2021/01/25 12:05:47;;;;;;;1.1;0.7;;;;;;;3.58;56.24805;922.6627;;;;
2021/01/25 12:08:12;;;;;;;0.5;0.5;;;;;;;3.55;57.40137;922.7332;;;;
2021/01/25 12:10:40;;;;;;;1.2;0.5;;;;;;;3.6;59.49902;922.7844;;;;
2021/01/25 12:13:05;;;;;;;0.2;0.2;;;;;;;3.57;60.99902;922.7648;;;;
2021/01/25 12:15:38;;;;;;;0.6;0.4;;;;;;;3.16;64.19531;922.7645;;;;
2021/01/25 12:18:04;;;;;;;0.2;0.2;;;;;;;3.18;64.65723;922.8253;;;;
2021/01/25 12:20:29;;;;;;;3;0.3;;;;;;;2.66;67.28027;922.8401;;;;
2021/01/25 12:22:55;;;;;;;0.4;0.4;;;;;;;2.76;67.49805;922.8447;;;;
2021/01/25 12:25:20;;;;;;;1.9;0.6;;;;;;;3;67.35547;922.8362;;;;
2021/01/25 12:27:46;;;;;;;1.8;0.5;;;;;;;2.72;68.78027;922.7452;;;;
2021/01/25 12:30:14;;;;;;;0.7;0.4;;;;;;;2.83;70.17871;922.8499;;;;
2021/01/25 12:32:37;;;;;;;0.8;0.5;;;;;;;3.5;67.55957;922.9088;;;;
2021/01/25 12:35:03;;;;;;;2.6;1.2;;;;;;;3.92;65.98438;922.9451;;;;
2021/01/25 12:37:28;;;;;;;2.2;1.5;;;;;;;4.19;64.35059;922.8689;;;;
2021/01/25 12:39:53;;;;;;;4.7;2.1;;;;;;;4.13;65.20898;922.8441;;;;
2021/01/25 12:42:18;;;;;;;0.6;0.4;;;;;;;3.88;64.22559;922.9077;;;;
2021/01/25 12:44:45;;;;;;;1.5;0.9;;;;;;;4.24;63.9082;922.8885;;;;
2021/01/25 12:47:10;;;;;;;1.4;1;;;;;;;4.62;63.19922;922.7996;;;;
2021/01/25 12:49:38;;;;;;;0.5;0.5;;;;;;;4.62;61.67871;922.8272;;;;
2021/01/25 12:52:03;;;;;;;0.3;0.3;;;;;;;4.78;60.6416;922.9401;;;;
2021/01/25 12:54:29;;;;;;;0.4;0.2;;;;;;;4.79;60.7793;922.9551;;;;
2021/01/25 12:56:54;;;;;;;0.4;0.1;;;;;;;5.02;59.43652;922.968;;;;
2021/01/25 12:59:20;;;;;;;0.5;0.5;;;;;;;5.21;59.53027;923.071;;;;
2021/01/25 13:01:45;;;;;;;2.3;1.4;;;;;;;5.05;59.57715;923.0628;;;;
2021/01/25 13:04:12;;;;;;;3.4;0.8;;;;;;;4.67;59.47852;923.1278;;;;
2021/01/25 13:06:37;;;;;;;0.4;0.4;;;;;;;4.11;61.74023;923.114;;;;
2021/01/25 13:09:02;;;;;;;0.2;0.2;;;;;;;5.03;57.48926;923.0131;;;;
2021/01/25 13:11:38;;;;;;;1.4;0.9;;;;;;;5.49;56.61426;923.0535;;;;
2021/01/25 13:13:52;;;;;;;1.1;0.7;;;;;;;5.69;57.08105;923.1318;;;;
2021/01/25 13:16:19;;;;;;;0.3;0.3;;;;;;;5.74;55.47266;923.1058;;;;
2021/01/25 13:18:45;;;;;;;0.1;0.1;;;;;;;5.65;55.85547;923.2137;;;;
2021/01/25 13:21:10;;;;;;;0.1;0.1;;;;;;;5.31;56.19531;923.2625;;;;
2021/01/25 13:23:35;;;;;;;0.3;0.2;;;;;;;4.9;57.87793;923.3259;;;;
2021/01/25 13:26:01;;;;;;;0.6;0.4;;;;;;;4.63;58.34668;923.3577;;;;
2021/01/25 13:28:26;;;;;;;0.1;0.1;;;;;;;4.47;58.80957;923.3303;;;;
2021/01/25 13:30:51;;;;;;;0.4;0.4;;;;;;;4.54;59.21387;923.3875;;;;
2021/01/25 13:33:17;;;;;;;1.8;1;;;;;;;4.28;59.80762;923.3906;;;;
2021/01/25 13:35:44;;;;;;;3.9;1.9;;;;;;;3.94;61.61328;923.4656;;;;
2021/01/25 13:38:10;;;;;;;7.1;3;;;;;;;3.92;61.52051;923.5608;;;;
2021/01/25 13:40:41;;;;;;;3.2;1.4;;;;;;;3.82;61.34863;923.633;;;;
2021/01/25 13:43:06;;;;;;;1.7;1;;;;;;;3.65;61.04492;923.5876;;;;
2021/01/25 13:45:31;;;;;;;0.7;0.6;;;;;;;3.76;60.74512;923.7477;;;;
2021/01/25 13:47:58;;;;;;;1.5;0.7;;;;;;;3.96;59.48047;923.7951;;;;
2021/01/25 13:50:23;;;;;;;0.2;0.2;;;;;;;3.64;59.99805;923.9235;;;;
2021/01/25 13:52:48;;;;;;;0.8;0.6;;;;;;;3.63;58.17578;923.8871;;;;
2021/01/25 13:55:13;;;;;;;0.3;0.3;;;;;;;3.51;60.87793;923.9295;;;;
2021/01/25 13:57:39;;;;;;;1.2;0.7;;;;;;;3.52;61.35059;923.8745;;;;
2021/01/25 14:00:04;;;;;;;0.3;0.3;;;;;;;3.34;56.53027;924.0167;;;;
2021/01/25 14:02:29;;;;;;;0.1;0.1;;;;;;;2.86;59.29395;923.9774;;;;
2021/01/25 14:04:58;;;;;;;0.6;0.2;;;;;;;2.92;61.36426;923.9388;;;;
2021/01/25 14:07:23;;;;;;;0.5;0.4;;;;;;;3;62.47656;923.9766;;;;
2021/01/25 14:09:48;;;;;;;0.3;0.3;;;;;;;3.23;62.49902;924.0633;;;;
2021/01/25 14:12:13;;;;;;;0.2;0.2;;;;;;;3.36;61.82227;924.0438;;;;
2021/01/25 14:14:41;;;;;;;1.1;0.8;;;;;;;3.61;60.72363;924.0963;;;;
2021/01/25 14:17:05;;;;;;;0.8;0.5;;;;;;;3.75;59.92383;924.094;;;;
2021/01/25 14:19:30;;;;;;;0.7;0.5;;;;;;;4.11;58.97363;924.1356;;;;
2021/01/25 14:21:56;;;;;;;5.2;2.2;;;;;;;4.29;58.40234;924.0525;;;;
2021/01/25 14:24:21;;;;;;;4.5;1.9;;;;;;;3.92;58.39453;924.1142;;;;
2021/01/25 14:26:46;;;;;;;6.7;2.3;;;;;;;4.06;57.53711;924.1665;;;;
2021/01/25 14:29:11;;;;;;;9.8;4.2;;;;;;;4.44;57.4873;924.2188;;;;
2021/01/25 14:31:36;;;;;;;1.7;1.3;;;;;;;4.15;58.64063;924.2336;;;;
2021/01/25 14:34:02;;;;;;;3.3;1.4;;;;;;;3.95;58.25391;924.291;;;;
2021/01/25 14:36:27;;;;;;;2.4;1.7;;;;;;;3.78;59.15234;924.2675;;;;
2021/01/25 14:38:53;;;;;;;1.2;0.7;;;;;;;3.73;58.96582;924.2889;;;;
2021/01/25 14:41:18;;;;;;;0.7;0.6;;;;;;;3.86;59.68066;924.3419;;;;
2021/01/25 14:43:44;;;;;;;3.3;1.6;;;;;;;3.62;58.69238;924.3947;;;;
2021/01/25 14:46:09;;;;;;;0.4;0.4;;;;;;;3.52;59.30762;924.508;;;;
2021/01/25 14:48:37;;;;;;;3.7;0.9;;;;;;;3.3;59.24219;924.5338;;;;
2021/01/25 14:51:03;;;;;;;0.4;0.4;;;;;;;3.02;60;924.4791;;;;
2021/01/25 14:53:28;;;;;;;0.7;0.4;;;;;;;2.94;60.41504;924.6214;;;;
2021/01/25 14:55:53;;;;;;;1.5;0.7;;;;;;;2.98;59.9834;924.63;;;;
2021/01/25 14:58:20;;;;;;;0.9;0.6;;;;;;;3.14;59.92676;924.624;;;;
2021/01/25 15:00:45;;;;;;;0.3;0.3;;;;;;;3.08;61.15332;924.734;;;;
2021/01/25 15:03:11;;;;;;;1.8;0.9;;;;;;;2.98;59.55762;924.8242;;;;
2021/01/25 15:05:36;;;;;;;1.5;0.9;;;;;;;3.03;60.2373;924.9203;;;;
2021/01/25 15:08:02;;;;;;;1.3;1;;;;;;;3.11;61.88672;924.9365;;;;
2021/01/25 15:10:28;;;;;;;0.5;0.3;;;;;;;3.14;62.47559;924.9016;;;;
2021/01/25 15:12:53;;;;;;;1.8;1;;;;;;;2.99;62.30762;924.9383;;;;
2021/01/25 15:15:18;;;;;;;2.6;1.6;;;;;;;3.04;62.3584;924.9425;;;;
2021/01/25 15:17:46;;;;;;;1.9;1.5;;;;;;;2.91;62.60938;925.0683;;;;
2021/01/25 15:20:09;;;;;;;2;1;;;;;;;2.76;63.25977;925.0898;;;;
2021/01/25 15:22:34;;;;;;;1.2;0.4;;;;;;;2.62;62.73535;925.064;;;;
2021/01/25 15:25:00;;;;;;;0.8;0.5;;;;;;;2.9;62.41699;925.0753;;;;
2021/01/25 15:27:27;;;;;;;0.3;0.3;;;;;;;3.12;61.83203;925.1097;;;;
2021/01/25 15:29:55;;;;;;;1.3;1;;;;;;;3.16;60.46777;925.1833;;;;
2021/01/25 15:32:17;;;;;;;2.5;1.3;;;;;;;3.14;60.86914;925.2885;;;;
2021/01/25 15:34:43;;;;;;;1.7;1.2;;;;;;;3.01;61.9043;925.3627;;;;
2021/01/25 15:37:08;;;;;;;1.5;0.9;;;;;;;3.03;61.52734;925.2317;;;;